Time;durP1;ratioP1;P1;durP2;ratioP2;P2;SDS_P1;SDS_P2;PMS_P1;PMS_P2;Temp;Humidity;BMP_temperature;BMP_pressure;BME280_temperature;BME280_humidity;BME280_pressure;Samples;Min_cycle;Max_cycle;Signal;HPM_P1;HPM_P2
2022/02/15 00:00:18;;;;;;;;;;;13.50;54.40;;;;;;5163795;27;20141;-70
2022/02/15 00:02:43;;;;;;;;;;;13.40;54.40;;;;;;5163857;27;19903;-70
2022/02/15 00:05:09;;;;;;;;;;;13.40;54.40;;;;;;5163844;27;20103;-70
2022/02/15 00:07:35;;;;;;;;;;;13.40;54.40;;;;;;5163757;27;19960;-70
2022/02/15 00:10:01;;;;;;;;;;;13.40;54.40;;;;;;5163605;27;20234;-70
2022/02/15 00:12:27;;;;;;;;;;;13.40;54.40;;;;;;5163792;27;19903;-70
2022/02/15 00:14:52;;;;;;;;;;;13.40;54.30;;;;;;5163589;27;19918;-70
2022/02/15 00:17:18;;;;;;;;;;;13.40;54.40;;;;;;5163561;27;20207;-70
2022/02/15 00:19:43;;;;;;;;;;;13.40;54.40;;;;;;5163526;27;19903;-71
2022/02/15 00:22:09;;;;;;;;;;;13.40;54.50;;;;;;5163507;27;19952;-69
2022/02/15 00:24:34;;;;;;;;;;;13.40;54.50;;;;;;5163570;27;20403;-70
2022/02/15 00:27:00;;;;;;;;;;;13.40;54.50;;;;;;5163417;27;19915;-70
2022/02/15 00:29:26;;;;;;;;;;;13.40;54.50;;;;;;5163360;27;20108;-70
2022/02/15 00:31:51;;;;;;;;;;;13.40;54.50;;;;;;5163323;27;20207;-71
2022/02/15 00:34:17;;;;;;;;;;;13.40;54.50;;;;;;5163291;27;19926;-70
2022/02/15 00:36:42;;;;;;;;;;;13.40;54.50;;;;;;5163279;27;20092;-70
2022/02/15 00:39:09;;;;;;;;;;;13.40;54.50;;;;;;5163234;27;20205;-70
2022/02/15 00:41:35;;;;;;;;;;;13.40;54.50;;;;;;5163164;27;19947;-70
2022/02/15 00:44:00;;;;;;;;;;;13.40;54.50;;;;;;5163100;27;19911;-71
2022/02/15 00:46:26;;;;;;;;;;;13.40;54.50;;;;;;5163039;27;19911;-70
2022/02/15 00:48:52;;;;;;;;;;;13.40;54.50;;;;;;5162949;27;19907;-70
2022/02/15 00:51:18;;;;;;;;;;;13.40;54.50;;;;;;5162940;27;19907;-70
2022/02/15 00:53:43;;;;;;;;;;;13.40;54.40;;;;;;5162954;27;19918;-70
2022/02/15 00:56:09;;;;;;;;;;;13.40;54.50;;;;;;5162830;27;19910;-69
2022/02/15 00:58:34;;;;;;;;;;;13.50;54.50;;;;;;5162862;27;20084;-69
2022/02/15 01:01:00;;;;;;;;;;;13.40;54.50;;;;;;5162789;27;19918;-70
2022/02/15 01:03:25;;;;;;;;;;;13.40;54.40;;;;;;5162759;27;19981;-71
2022/02/15 01:05:51;;;;;;;;;;;13.40;54.50;;;;;;5162694;27;19918;-71
2022/02/15 01:08:16;;;;;;;;;;;13.40;54.50;;;;;;5162378;27;19938;-70
2022/02/15 01:10:42;;;;;;;;;;;13.40;54.50;;;;;;5162502;27;19945;-70
2022/02/15 01:13:08;;;;;;;;;;;13.40;54.40;;;;;;5162076;27;19918;-70
2022/02/15 01:15:34;;;;;;;;;;;13.40;54.50;;;;;;5162532;27;19903;-70
2022/02/15 01:17:59;;;;;;;;;;;13.40;54.50;;;;;;5162502;27;19918;-70
2022/02/15 01:20:25;;;;;;;;;;;13.40;54.50;;;;;;5162956;27;20092;-70
2022/02/15 01:22:50;;;;;;;;;;;13.40;54.50;;;;;;5162406;27;19918;-70
2022/02/15 01:25:16;;;;;;;;;;;13.40;54.50;;;;;;5162276;27;19967;-71
2022/02/15 01:27:42;;;;;;;;;;;13.40;54.50;;;;;;5162249;27;19935;-70
2022/02/15 01:30:08;;;;;;;;;;;13.40;54.50;;;;;;5162282;27;20226;-70
2022/02/15 01:32:33;;;;;;;;;;;13.40;54.50;;;;;;5162209;27;19964;-70
2022/02/15 01:34:59;;;;;;;;;;;13.40;54.50;;;;;;5162206;27;19982;-70
2022/02/15 01:37:26;;;;;;;;;;;13.40;54.50;;;;;;5162159;27;20107;-70
2022/02/15 01:39:51;;;;;;;;;;;13.40;54.50;;;;;;5143582;27;19918;-70
2022/02/15 01:42:18;;;;;;;;;;;13.40;54.50;;;;;;5162138;27;19934;-70
2022/02/15 01:44:43;;;;;;;;;;;13.40;54.50;;;;;;5161987;27;19971;-70
2022/02/15 01:47:09;;;;;;;;;;;13.40;54.40;;;;;;5161928;27;20210;-70
2022/02/15 01:49:34;;;;;;;;;;;13.40;54.50;;;;;;5162014;27;20425;-69
2022/02/15 01:52:00;;;;;;;;;;;13.40;54.50;;;;;;5161987;27;19977;-69
2022/02/15 01:54:25;;;;;;;;;;;13.40;54.40;;;;;;5161867;27;19918;-69
2022/02/15 01:56:51;;;;;;;;;;;13.40;54.40;;;;;;5161938;27;19911;-70
2022/02/15 01:59:17;;;;;;;;;;;13.40;54.40;;;;;;5161833;27;19903;-71
2022/02/15 02:01:43;;;;;;;;;;;13.40;54.40;;;;;;5161820;27;19911;-70
2022/02/15 02:05:47;;;;;;;;;;;13.40;54.40;;;;;;5161867;27;19925;-70
2022/02/15 02:06:57;;;;;;;;;;;13.40;54.40;;;;;;5161583;27;19978;-71
2022/02/15 02:09:22;;;;;;;;;;;13.40;54.40;;;;;;5161213;27;19930;-70
2022/02/15 02:11:48;;;;;;;;;;;13.40;54.40;;;;;;5161756;27;19968;-69
2022/02/15 02:14:13;;;;;;;;;;;13.50;54.30;;;;;;5161756;27;19951;-70
2022/02/15 02:16:40;;;;;;;;;;;13.40;54.40;;;;;;5161731;27;20141;-70
2022/02/15 02:19:05;;;;;;;;;;;13.50;54.50;;;;;;5161652;27;20240;-70
2022/02/15 02:21:35;;;;;;;;;;;13.40;54.50;;;;;;5161679;27;19915;-70
2022/02/15 02:24:00;;;;;;;;;;;13.40;54.50;;;;;;5163132;27;20207;-70
2022/02/15 02:26:26;;;;;;;;;;;13.40;54.50;;;;;;5165848;27;19922;-69
2022/02/15 02:28:52;;;;;;;;;;;13.40;54.50;;;;;;5165716;27;20096;-70
2022/02/15 02:31:18;;;;;;;;;;;13.40;54.40;;;;;;5165730;27;19911;-70
2022/02/15 02:33:43;;;;;;;;;;;13.40;54.50;;;;;;5165658;27;19903;-70
2022/02/15 02:36:10;;;;;;;;;;;13.40;54.50;;;;;;5165641;27;19922;-69
2022/02/15 02:38:36;;;;;;;;;;;13.40;54.50;;;;;;5165626;27;19911;-70
2022/02/15 02:41:01;;;;;;;;;;;13.40;54.50;;;;;;5165577;27;19910;-70
2022/02/15 02:43:28;;;;;;;;;;;13.40;54.40;;;;;;5165486;27;19903;-70
2022/02/15 02:45:54;;;;;;;;;;;13.40;54.50;;;;;;5165422;27;20129;-70
2022/02/15 02:48:19;;;;;;;;;;;13.40;54.50;;;;;;5146534;27;19915;-70
2022/02/15 02:50:45;;;;;;;;;;;13.40;54.50;;;;;;5165334;27;20176;-70
2022/02/15 02:53:11;;;;;;;;;;;13.40;54.40;;;;;;5165381;27;19910;-70
2022/02/15 02:55:37;;;;;;;;;;;13.40;54.40;;;;;;5165236;27;20110;-69
2022/02/15 02:58:02;;;;;;;;;;;13.40;54.40;;;;;;5165211;27;19914;-70
2022/02/15 03:00:28;;;;;;;;;;;13.40;54.50;;;;;;5165098;27;19911;-70
2022/02/15 03:02:54;;;;;;;;;;;13.40;54.50;;;;;;5165142;27;19911;-70
2022/02/15 03:05:19;;;;;;;;;;;13.30;54.50;;;;;;5165108;27;19949;-69
2022/02/15 03:07:45;;;;;;;;;;;13.30;54.50;;;;;;5164876;27;19918;-70
2022/02/15 03:10:10;;;;;;;;;;;13.40;54.50;;;;;;5146176;27;19946;-70
2022/02/15 03:12:36;;;;;;;;;;;13.40;54.50;;;;;;5164889;27;19910;-70
2022/02/15 03:15:02;;;;;;;;;;;13.40;54.60;;;;;;5164872;27;19911;-69
2022/02/15 03:17:27;;;;;;;;;;;13.30;54.50;;;;;;5164822;27;19934;-70
2022/02/15 03:19:53;;;;;;;;;;;13.30;54.50;;;;;;5164717;27;19978;-70
2022/02/15 03:22:19;;;;;;;;;;;13.30;54.50;;;;;;5146057;27;20420;-70
2022/02/15 03:24:45;;;;;;;;;;;13.30;54.50;;;;;;5164579;27;19911;-70
2022/02/15 03:27:11;;;;;;;;;;;13.40;54.50;;;;;;5145954;27;20203;-70
2022/02/15 03:29:36;;;;;;;;;;;13.30;54.50;;;;;;5164527;27;19922;-69
2022/02/15 03:32:02;;;;;;;;;;;13.30;54.50;;;;;;5164393;27;19903;-70
2022/02/15 03:34:28;;;;;;;;;;;13.40;54.50;;;;;;5163876;27;19918;-69
2022/02/15 03:36:53;;;;;;;;;;;13.40;54.50;;;;;;5164367;27;20391;-69
2022/02/15 03:39:19;;;;;;;;;;;13.40;54.50;;;;;;5164349;27;19911;-69
2022/02/15 03:44:28;;;;;;;;;;;13.40;54.50;;;;;;5164224;27;19956;-69
2022/02/15 03:46:54;;;;;;;;;;;13.40;54.50;;;;;;5164070;27;19911;-69
2022/02/15 03:49:20;;;;;;;;;;;13.40;54.40;;;;;;5164149;27;19935;-69
2022/02/15 03:51:46;;;;;;;;;;;13.40;54.50;;;;;;5164070;27;20374;-69
2022/02/15 03:54:12;;;;;;;;;;;13.40;54.50;;;;;;5163989;27;19911;-69
2022/02/15 03:56:37;;;;;;;;;;;13.40;54.50;;;;;;5164031;27;19903;-69
2022/02/15 03:59:04;;;;;;;;;;;13.40;54.50;;;;;;5163963;27;19946;-69
2022/02/15 04:01:30;;;;;;;;;;;13.30;54.40;;;;;;5163967;27;19915;-69
2022/02/15 04:03:55;;;;;;;;;;;13.30;54.40;;;;;;5163786;27;19953;-70
2022/02/15 04:06:21;;;;;;;;;;;13.30;54.50;;;;;;5145157;27;19911;-69
2022/02/15 04:08:46;;;;;;;;;;;13.30;54.50;;;;;;5163450;27;20244;-71
2022/02/15 04:11:12;;;;;;;;;;;13.30;54.50;;;;;;5163680;27;20398;-68
2022/02/15 04:13:38;;;;;;;;;;;13.30;55.10;;;;;;5145044;27;19911;-71
2022/02/15 04:16:04;;;;;;;;;;;13.30;54.60;;;;;;5163554;27;19947;-71
2022/02/15 04:18:30;;;;;;;;;;;13.30;54.50;;;;;;5163584;27;19995;-71
2022/02/15 04:20:55;;;;;;;;;;;13.30;54.50;;;;;;5163431;27;19911;-69
2022/02/15 04:23:21;;;;;;;;;;;13.30;54.50;;;;;;5163438;27;19918;-70
2022/02/15 04:25:47;;;;;;;;;;;13.30;54.50;;;;;;5163365;27;19911;-70
2022/02/15 04:28:12;;;;;;;;;;;13.30;54.50;;;;;;5163234;27;19915;-70
2022/02/15 04:30:38;;;;;;;;;;;13.30;54.50;;;;;;5163209;27;19911;-71
2022/02/15 04:33:04;;;;;;;;;;;13.30;54.50;;;;;;5144633;27;20002;-71
2022/02/15 04:35:29;;;;;;;;;;;13.30;54.50;;;;;;5163149;27;19942;-71
2022/02/15 04:37:55;;;;;;;;;;;13.30;54.50;;;;;;5144346;27;19911;-69
2022/02/15 04:40:21;;;;;;;;;;;13.30;54.50;;;;;;5144465;27;19987;-69
2022/02/15 04:42:47;;;;;;;;;;;13.30;54.50;;;;;;5162921;27;19904;-71
2022/02/15 04:45:12;;;;;;;;;;;13.30;54.50;;;;;;5162948;27;19918;-70
2022/02/15 04:47:39;;;;;;;;;;;13.30;54.50;;;;;;5161854;27;19919;-70
2022/02/15 04:50:05;;;;;;;;;;;13.30;54.50;;;;;;5163116;27;19915;-71
2022/02/15 04:52:31;;;;;;;;;;;13.40;54.50;;;;;;5162764;27;19941;-71
2022/02/15 04:54:57;;;;;;;;;;;13.30;54.50;;;;;;5162762;27;20125;-71
2022/02/15 04:57:22;;;;;;;;;;;13.30;54.40;;;;;;5162755;27;19918;-69
2022/02/15 04:59:48;;;;;;;;;;;13.30;54.40;;;;;;5162709;27;19970;-71
2022/02/15 05:02:14;;;;;;;;;;;13.30;54.40;;;;;;5162640;27;20201;-72
2022/02/15 05:04:48;;;;;;;;;;;13.30;54.50;;;;;;5162572;27;19911;-69
2022/02/15 05:07:17;;;;;;;;;;;13.30;54.50;;;;;;5162456;27;20215;-70
2022/02/15 05:09:43;;;;;;;;;;;13.30;54.60;;;;;;5162349;27;19930;-69
2022/02/15 05:12:09;;;;;;;;;;;13.30;54.60;;;;;;5162438;27;19903;-70
2022/02/15 05:14:34;;;;;;;;;;;13.30;54.50;;;;;;5143747;27;19911;-70
2022/02/15 05:17:00;;;;;;;;;;;13.30;54.50;;;;;;5162355;27;19942;-69
2022/02/15 05:19:26;;;;;;;;;;;13.30;54.50;;;;;;5162266;27;19978;-70
2022/02/15 05:21:51;;;;;;;;;;;13.30;54.50;;;;;;5162221;27;19934;-69
2022/02/15 05:24:17;;;;;;;;;;;13.30;54.50;;;;;;5162231;27;20432;-69
2022/02/15 05:26:42;;;;;;;;;;;13.30;54.50;;;;;;5162121;27;19911;-69
2022/02/15 05:29:08;;;;;;;;;;;13.30;54.60;;;;;;5162072;27;20247;-69
2022/02/15 05:31:34;;;;;;;;;;;13.30;54.70;;;;;;5162060;27;20147;-69
2022/02/15 05:33:59;;;;;;;;;;;13.30;54.70;;;;;;5143523;27;19911;-70
2022/02/15 05:36:25;;;;;;;;;;;13.30;54.60;;;;;;5161873;27;19955;-70
2022/02/15 05:38:50;;;;;;;;;;;13.30;54.50;;;;;;5161926;27;20015;-70
2022/02/15 05:41:16;;;;;;;;;;;13.30;54.50;;;;;;5161852;27;20195;-70
2022/02/15 05:43:42;;;;;;;;;;;13.30;54.50;;;;;;5161868;27;19903;-70
2022/02/15 05:46:07;;;;;;;;;;;13.30;54.50;;;;;;5161917;27;19911;-70
2022/02/15 05:48:33;;;;;;;;;;;13.30;54.60;;;;;;5161760;27;19915;-70
2022/02/15 05:50:58;;;;;;;;;;;13.30;54.60;;;;;;5161737;27;19911;-69
2022/02/15 05:53:25;;;;;;;;;;;13.30;54.60;;;;;;5161678;27;19948;-70
2022/02/15 05:55:52;;;;;;;;;;;13.30;54.50;;;;;;5161733;27;19911;-70
2022/02/15 05:58:19;;;;;;;;;;;13.30;54.50;;;;;;5161488;27;19918;-70
2022/02/15 06:00:44;;;;;;;;;;;13.30;54.40;;;;;;5161657;27;19946;-69
2022/02/15 06:05:54;;;;;;;;;;;13.30;54.50;;;;;;5161619;27;19917;-69
2022/02/15 06:08:20;;;;;;;;;;;13.30;54.50;;;;;;5161438;27;19946;-69
2022/02/15 06:10:48;;;;;;;;;;;13.20;54.50;;;;;;5161559;27;19911;-69
2022/02/15 06:13:14;;;;;;;;;;;13.30;54.50;;;;;;5161545;27;20215;-69
2022/02/15 06:15:40;;;;;;;;;;;13.30;54.60;;;;;;5161587;27;19911;-70
2022/02/15 06:18:06;;;;;;;;;;;13.30;54.50;;;;;;5161513;27;20014;-69
2022/02/15 06:20:32;;;;;;;;;;;13.30;54.50;;;;;;5161439;27;19915;-70
2022/02/15 06:22:57;;;;;;;;;;;13.30;54.50;;;;;;5161440;27;19911;-69
2022/02/15 06:25:23;;;;;;;;;;;13.30;54.40;;;;;;5161337;27;19911;-69
2022/02/15 06:27:48;;;;;;;;;;;13.30;54.50;;;;;;5161322;27;19907;-69
2022/02/15 06:30:14;;;;;;;;;;;13.30;54.50;;;;;;5161265;27;20016;-70
2022/02/15 06:32:40;;;;;;;;;;;13.30;54.50;;;;;;5161436;27;19986;-70
2022/02/15 06:35:06;;;;;;;;;;;13.30;54.50;;;;;;5161309;27;19971;-70
2022/02/15 06:37:34;;;;;;;;;;;13.30;54.40;;;;;;5161287;27;20212;-69
2022/02/15 06:39:59;;;;;;;;;;;13.30;54.40;;;;;;5161276;27;20284;-69
2022/02/15 06:42:25;;;;;;;;;;;13.30;54.40;;;;;;5161263;27;19911;-69
2022/02/15 06:44:51;;;;;;;;;;;13.30;54.40;;;;;;5161212;27;19915;-69
2022/02/15 06:47:16;;;;;;;;;;;13.30;54.50;;;;;;5161098;27;20393;-69
2022/02/15 06:49:42;;;;;;;;;;;13.30;54.40;;;;;;5161200;27;19911;-70
2022/02/15 06:52:07;;;;;;;;;;;13.30;54.50;;;;;;5161165;27;19917;-70
2022/02/15 06:54:33;;;;;;;;;;;13.30;54.50;;;;;;5161109;27;20191;-70
2022/02/15 06:56:59;;;;;;;;;;;13.30;54.40;;;;;;5142533;27;19970;-70
2022/02/15 06:59:24;;;;;;;;;;;13.30;54.40;;;;;;5161088;27;20268;-70
2022/02/15 07:01:50;;;;;;;;;;;13.30;54.40;;;;;;5142731;27;19918;-70
2022/02/15 07:04:16;;;;;;;;;;;13.30;54.40;;;;;;5160962;27;19979;-69
2022/02/15 07:06:41;;;;;;;;;;;13.30;54.50;;;;;;5161068;27;20103;-69
2022/02/15 07:09:07;;;;;;;;;;;13.30;54.40;;;;;;5160777;27;19956;-70
2022/02/15 07:11:33;;;;;;;;;;;13.30;54.40;;;;;;5164648;27;19911;-70
2022/02/15 07:13:58;;;;;;;;;;;13.30;54.50;;;;;;5164757;27;20191;-70
2022/02/15 07:16:24;;;;;;;;;;;13.30;54.40;;;;;;5164604;27;19911;-70
2022/02/15 07:18:49;;;;;;;;;;;13.30;54.40;;;;;;5164662;27;20277;-69
2022/02/15 07:21:15;;;;;;;;;;;13.20;54.40;;;;;;5146020;27;19915;-71
2022/02/15 07:23:41;;;;;;;;;;;13.20;54.30;;;;;;5164572;27;19911;-70
2022/02/15 07:26:06;;;;;;;;;;;13.30;54.40;;;;;;5164480;27;19919;-70
2022/02/15 07:28:32;;;;;;;;;;;13.30;54.30;;;;;;5164351;27;19972;-70
2022/02/15 07:30:58;;;;;;;;;;;13.30;54.30;;;;;;5164422;27;19911;-70
2022/02/15 07:33:23;;;;;;;;;;;13.30;54.40;;;;;;5145771;27;20192;-69
2022/02/15 07:35:49;;;;;;;;;;;13.30;54.40;;;;;;5164315;27;19979;-70
2022/02/15 07:38:15;;;;;;;;;;;13.30;54.30;;;;;;5164169;27;19918;-69
2022/02/15 07:40:40;;;;;;;;;;;13.30;54.30;;;;;;5164249;27;20250;-70
2022/02/15 07:43:07;;;;;;;;;;;13.30;54.30;;;;;;5164441;27;20103;-70
2022/02/15 07:45:32;;;;;;;;;;;13.30;54.30;;;;;;5164142;27;19903;-70
2022/02/15 07:47:58;;;;;;;;;;;13.30;54.20;;;;;;5164016;27;20104;-70
2022/02/15 07:50:24;;;;;;;;;;;13.40;54.20;;;;;;5163929;27;19904;-70
2022/02/15 07:52:54;;;;;;;;;;;13.30;54.10;;;;;;5163996;27;19926;-70
2022/02/15 07:55:20;;;;;;;;;;;13.40;54.20;;;;;;5163916;27;19986;-70
2022/02/15 07:57:46;;;;;;;;;;;13.40;54.20;;;;;;5163788;27;20114;-70
2022/02/15 08:00:18;;;;;;;;;;;13.30;54.20;;;;;;5163849;27;20103;-69
2022/02/15 08:02:44;;;;;;;;;;;13.30;54.20;;;;;;5163847;27;19917;-70
2022/02/15 08:05:10;;;;;;;;;;;13.30;54.20;;;;;;5163762;27;19911;-70
2022/02/15 08:07:37;;;;;;;;;;;13.30;54.20;;;;;;5163547;27;19922;-70
2022/02/15 08:10:05;;;;;;;;;;;13.30;54.20;;;;;;5162651;27;20818;-70
2022/02/15 08:12:31;;;;;;;;;;;13.30;54.20;;;;;;5163510;27;19922;-69
2022/02/15 08:14:57;;;;;;;;;;;13.30;54.30;;;;;;5163502;27;20193;-70
2022/02/15 08:17:23;;;;;;;;;;;13.30;54.30;;;;;;5163409;27;19911;-70
2022/02/15 08:19:49;;;;;;;;;;;13.30;54.30;;;;;;5163383;27;19903;-70
2022/02/15 08:22:17;;;;;;;;;;;13.30;54.30;;;;;;5163244;27;19933;-70
2022/02/15 08:24:42;;;;;;;;;;;13.40;54.40;;;;;;5163179;27;19903;-71
2022/02/15 08:27:08;;;;;;;;;;;13.30;54.30;;;;;;5163360;27;20072;-70
2022/02/15 08:29:33;;;;;;;;;;;13.30;54.30;;;;;;5163270;27;20125;-69
2022/02/15 08:32:00;;;;;;;;;;;13.40;54.30;;;;;;5163142;27;19911;-69
2022/02/15 08:34:26;;;;;;;;;;;13.40;54.30;;;;;;5163576;27;19911;-69
2022/02/15 08:36:51;;;;;;;;;;;13.30;54.30;;;;;;5163014;27;19911;-69
2022/02/15 08:39:18;;;;;;;;;;;13.30;54.40;;;;;;5163060;27;19977;-69
2022/02/15 08:41:43;;;;;;;;;;;13.30;54.50;;;;;;5163160;27;20136;-69
2022/02/15 08:44:09;;;;;;;;;;;13.40;54.50;;;;;;5162969;27;19942;-69
2022/02/15 08:46:35;;;;;;;;;;;13.40;54.40;;;;;;5162896;27;19910;-70
2022/02/15 08:49:00;;;;;;;;;;;13.40;54.40;;;;;;5162776;27;19915;-69
2022/02/15 08:51:26;;;;;;;;;;;13.40;54.40;;;;;;5162809;27;19975;-69
2022/02/15 08:53:52;;;;;;;;;;;13.40;54.40;;;;;;5162741;27;20184;-70
2022/02/15 08:56:18;;;;;;;;;;;13.40;54.40;;;;;;5162722;27;19911;-70
2022/02/15 08:58:43;;;;;;;;;;;13.40;54.50;;;;;;5162613;27;19942;-70
2022/02/15 09:01:10;;;;;;;;;;;13.40;54.50;;;;;;5162605;27;19931;-70
2022/02/15 09:03:35;;;;;;;;;;;13.40;54.50;;;;;;5162567;27;20210;-70
2022/02/15 09:06:01;;;;;;;;;;;13.40;54.50;;;;;;5162496;27;19918;-69
2022/02/15 09:08:27;;;;;;;;;;;13.40;55.10;;;;;;5162209;27;20148;-70
2022/02/15 09:10:53;;;;;;;;;;;13.40;54.50;;;;;;5162409;27;19911;-70
2022/02/15 09:13:19;;;;;;;;;;;13.30;54.50;;;;;;5162307;27;19922;-69
2022/02/15 09:15:44;;;;;;;;;;;13.40;54.50;;;;;;5162309;27;19918;-70
2022/02/15 09:18:10;;;;;;;;;;;13.30;54.50;;;;;;5162268;27;19918;-69
2022/02/15 09:20:36;;;;;;;;;;;13.40;54.50;;;;;;5162163;27;20208;-69
2022/02/15 09:23:02;;;;;;;;;;;13.40;54.50;;;;;;5162123;27;19917;-70
2022/02/15 09:25:28;;;;;;;;;;;13.40;54.40;;;;;;5162156;27;20107;-70
2022/02/15 09:27:54;;;;;;;;;;;13.40;54.40;;;;;;5161991;27;19907;-69
2022/02/15 09:30:19;;;;;;;;;;;13.40;54.30;;;;;;5161998;27;19911;-69
2022/02/15 09:32:45;;;;;;;;;;;13.40;54.40;;;;;;5161519;27;19974;-72
2022/02/15 09:35:10;;;;;;;;;;;13.50;54.40;;;;;;5161968;27;19965;-71
2022/02/15 09:37:36;;;;;;;;;;;13.40;54.40;;;;;;5161871;27;20222;-70
2022/02/15 09:40:02;;;;;;;;;;;13.40;54.50;;;;;;5161895;27;19903;-70
2022/02/15 09:42:28;;;;;;;;;;;13.40;54.50;;;;;;5161845;27;20156;-70
2022/02/15 09:44:53;;;;;;;;;;;13.40;54.50;;;;;;5143323;27;19903;-69
2022/02/15 09:47:26;;;;;;;;;;;13.40;54.50;;;;;;5161760;27;19918;-69
2022/02/15 09:49:52;;;;;;;;;;;13.40;54.50;;;;;;5161793;27;19942;-70
2022/02/15 09:52:19;;;;;;;;;;;13.40;54.70;;;;;;5161917;27;19957;-70
2022/02/15 09:54:46;;;;;;;;;;;13.40;54.60;;;;;;5161554;27;20227;-70
2022/02/15 09:57:12;;;;;;;;;;;13.40;54.70;;;;;;5161863;27;19947;-71
2022/02/15 09:59:37;;;;;;;;;;;13.40;54.70;;;;;;5161648;27;19903;-69
2022/02/15 10:02:05;;;;;;;;;;;13.40;54.60;;;;;;5161571;27;19911;-70
2022/02/15 10:04:34;;;;;;;;;;;13.50;54.60;;;;;;5161504;27;19938;-70
2022/02/15 10:07:00;;;;;;;;;;;13.50;54.60;;;;;;5161501;27;19911;-70
2022/02/15 10:09:27;;;;;;;;;;;13.50;54.60;;;;;;5161321;27;19930;-70
2022/02/15 10:12:00;;;;;;;;;;;13.50;54.60;;;;;;5161641;27;19953;-71
2022/02/15 10:14:26;;;;;;;;;;;13.50;54.60;;;;;;5161432;27;19956;-70
2022/02/15 10:16:51;;;;;;;;;;;13.50;54.70;;;;;;5161417;27;19911;-70
2022/02/15 10:19:24;;;;;;;;;;;13.50;54.70;;;;;;5161402;27;19925;-70
2022/02/15 10:21:54;;;;;;;;;;;13.50;54.70;;;;;;5161415;27;19911;-71
2022/02/15 10:24:20;;;;;;;;;;;13.50;54.70;;;;;;5161593;27;19911;-70
2022/02/15 10:26:56;;;;;;;;;;;13.50;54.60;;;;;;5161362;27;19911;-70
2022/02/15 10:29:22;;;;;;;;;;;13.50;54.60;;;;;;5161178;27;19990;-70
2022/02/15 10:31:48;;;;;;;;;;;13.60;54.60;;;;;;5161310;27;20202;-69
2022/02/15 10:34:13;;;;;;;;;;;13.60;54.70;;;;;;5161253;27;19941;-70
2022/02/15 10:36:39;;;;;;;;;;;13.50;54.70;;;;;;5161222;27;20238;-70
2022/02/15 10:39:04;;;;;;;;;;;13.50;54.70;;;;;;5161173;27;19911;-70
2022/02/15 10:41:34;;;;;;;;;;;13.60;54.70;;;;;;5161252;27;19911;-70
2022/02/15 10:44:00;;;;;;;;;;;13.50;54.70;;;;;;5161214;27;19919;-70
2022/02/15 10:46:33;;;;;;;;;;;13.50;54.70;;;;;;5164947;27;19911;-69
2022/02/15 10:48:59;;;;;;;;;;;13.60;54.80;;;;;;5165375;27;19930;-70
2022/02/15 10:51:25;;;;;;;;;;;13.60;54.80;;;;;;5165177;27;19911;-69
2022/02/15 10:53:51;;;;;;;;;;;13.60;54.90;;;;;;5165135;27;19911;-70
2022/02/15 10:56:17;;;;;;;;;;;13.60;54.90;;;;;;5165004;27;19910;-70
2022/02/15 10:58:42;;;;;;;;;;;13.60;54.90;;;;;;5164992;27;19926;-71
2022/02/15 11:01:09;;;;;;;;;;;13.60;54.80;;;;;;5164893;27;19911;-70
2022/02/15 11:03:36;;;;;;;;;;;13.60;54.80;;;;;;5164864;27;19911;-70
2022/02/15 11:06:02;;;;;;;;;;;13.70;54.80;;;;;;5164891;27;19946;-71
2022/02/15 11:08:28;;;;;;;;;;;13.70;54.80;;;;;;5164601;27;19986;-70
2022/02/15 11:11:02;;;;;;;;;;;13.70;54.80;;;;;;5164722;27;19974;-70
2022/02/15 11:13:28;;;;;;;;;;;13.70;54.90;;;;;;5164719;27;19933;-71
2022/02/15 11:15:55;;;;;;;;;;;13.70;54.80;;;;;;5164628;27;20091;-71
2022/02/15 11:18:27;;;;;;;;;;;13.70;54.80;;;;;;5164618;27;19998;-70
2022/02/15 11:20:59;;;;;;;;;;;13.70;54.80;;;;;;5164542;27;19918;-70
2022/02/15 11:23:26;;;;;;;;;;;13.70;54.90;;;;;;5164497;27;19918;-70
2022/02/15 11:26:05;;;;;;;;;;;13.70;55.00;;;;;;5164467;27;19911;-71
2022/02/15 11:28:31;;;;;;;;;;;13.70;55.00;;;;;;5145813;27;19915;-70
2022/02/15 11:30:57;;;;;;;;;;;13.70;55.10;;;;;;5164265;27;19909;-69
2022/02/15 11:33:30;;;;;;;;;;;13.70;55.10;;;;;;5164235;27;19911;-70
2022/02/15 11:36:09;;;;;;;;;;;13.70;55.10;;;;;;5164278;27;19919;-70
2022/02/15 11:38:35;;;;;;;;;;;13.70;55.20;;;;;;5164122;27;20326;-70
2022/02/15 11:41:05;;;;;;;;;;;13.70;55.30;;;;;;5164134;27;19918;-70
2022/02/15 11:43:31;;;;;;;;;;;13.70;55.30;;;;;;5164068;27;19911;-70
2022/02/15 11:45:57;;;;;;;;;;;13.70;55.20;;;;;;5163954;27;19903;-69
2022/02/15 11:48:39;;;;;;;;;;;13.70;55.20;;;;;;5163920;27;20231;-70
2022/02/15 11:51:26;;;;;;;;;;;13.80;55.20;;;;;;5163895;27;19917;-69
2022/02/15 11:53:56;;;;;;;;;;;13.80;55.20;;;;;;5163921;27;19911;-70
2022/02/15 11:56:21;;;;;;;;;;;13.80;55.10;;;;;;5163489;27;19911;-70
2022/02/15 11:58:51;;;;;;;;;;;13.80;55.10;;;;;;5163834;27;19986;-70
2022/02/15 12:01:24;;;;;;;;;;;13.80;55.10;;;;;;5163764;27;19990;-70
2022/02/15 12:03:49;;;;;;;;;;;13.80;55.20;;;;;;5163778;27;19955;-69
2022/02/15 12:06:16;;;;;;;;;;;13.80;55.30;;;;;;5163623;27;19910;-69
2022/02/15 12:08:52;;;;;;;;;;;13.70;55.40;;;;;;5163325;27;19922;-69
2022/02/15 12:11:17;;;;;;;;;;;13.70;55.40;;;;;;5163654;27;19907;-69
2022/02/15 12:13:45;;;;;;;;;;;13.70;55.30;;;;;;5163471;27;20014;-70
2022/02/15 12:16:12;;;;;;;;;;;13.70;55.50;;;;;;5163453;27;19911;-69
2022/02/15 12:18:39;;;;;;;;;;;13.70;55.40;;;;;;5163398;27;19903;-70
2022/02/15 12:21:04;;;;;;;;;;;13.70;55.40;;;;;;5163356;27;19918;-69
2022/02/15 12:23:30;;;;;;;;;;;13.80;55.40;;;;;;5163394;27;19911;-70
2022/02/15 12:25:56;;;;;;;;;;;13.80;55.30;;;;;;5163272;27;19911;-70
2022/02/15 12:28:22;;;;;;;;;;;13.80;55.30;;;;;;5163104;27;19915;-69
2022/02/15 12:30:48;;;;;;;;;;;13.80;55.30;;;;;;5163126;27;19911;-70
2022/02/15 12:33:14;;;;;;;;;;;13.90;55.30;;;;;;5163114;27;20246;-69
2022/02/15 12:35:39;;;;;;;;;;;13.90;55.20;;;;;;5144387;27;20115;-69
2022/02/15 12:38:05;;;;;;;;;;;13.90;55.20;;;;;;5162889;27;19911;-70
2022/02/15 12:40:31;;;;;;;;;;;13.90;55.30;;;;;;5162946;27;19938;-69
2022/02/15 12:42:56;;;;;;;;;;;13.90;55.30;;;;;;5162881;27;19950;-69
2022/02/15 12:45:23;;;;;;;;;;;13.80;55.30;;;;;;5162865;27;19938;-70
2022/02/15 12:47:50;;;;;;;;;;;13.80;55.40;;;;;;5162730;27;19915;-70
2022/02/15 12:50:17;;;;;;;;;;;13.80;55.40;;;;;;5162776;27;19911;-70
2022/02/15 12:52:43;;;;;;;;;;;13.80;55.50;;;;;;5162564;27;19924;-70
2022/02/15 12:55:15;;;;;;;;;;;13.80;55.40;;;;;;5162687;27;19911;-70
2022/02/15 12:57:42;;;;;;;;;;;13.80;55.40;;;;;;5162662;27;19911;-70
2022/02/15 13:00:11;;;;;;;;;;;13.80;55.40;;;;;;5162607;27;19982;-71
2022/02/15 13:02:37;;;;;;;;;;;13.80;55.40;;;;;;5162492;27;19949;-70
2022/02/15 13:05:03;;;;;;;;;;;13.90;55.40;;;;;;5162406;27;19911;-71
2022/02/15 13:07:29;;;;;;;;;;;13.90;55.40;;;;;;5161632;27;19915;-71
2022/02/15 13:09:57;;;;;;;;;;;14.00;55.40;;;;;;5162234;27;19923;-70
2022/02/15 13:12:24;;;;;;;;;;;14.00;55.30;;;;;;5162309;27;19918;-70
2022/02/15 13:14:52;;;;;;;;;;;14.00;55.20;;;;;;5143761;27;19918;-70
2022/02/15 13:17:18;;;;;;;;;;;14.00;55.20;;;;;;5143635;27;19912;-70
2022/02/15 13:19:44;;;;;;;;;;;14.00;55.10;;;;;;5162208;27;19918;-70
2022/02/15 13:22:14;;;;;;;;;;;14.00;55.10;;;;;;5162137;27;20195;-70
2022/02/15 13:24:59;;;;;;;;;;;14.00;55.10;;;;;;5162176;27;19911;-70
2022/02/15 13:27:33;;;;;;;;;;;14.00;55.10;;;;;;5161980;27;20181;-69
2022/02/15 13:30:00;;;;;;;;;;;14.00;55.20;;;;;;5161992;27;19907;-71
2022/02/15 13:32:33;;;;;;;;;;;14.00;55.30;;;;;;5162031;27;20119;-70
2022/02/15 13:34:59;;;;;;;;;;;14.00;55.40;;;;;;5161916;27;19994;-69
2022/02/15 13:37:32;;;;;;;;;;;14.00;55.30;;;;;;5161897;27;19926;-70
2022/02/15 13:39:58;;;;;;;;;;;14.00;55.30;;;;;;5161837;27;19915;-70
2022/02/15 13:42:24;;;;;;;;;;;14.00;55.40;;;;;;5161819;27;19911;-70
2022/02/15 13:44:49;;;;;;;;;;;14.00;55.30;;;;;;5161691;27;20291;-69
2022/02/15 13:47:15;;;;;;;;;;;14.10;55.40;;;;;;5161613;27;19954;-70
2022/02/15 13:49:42;;;;;;;;;;;14.10;55.30;;;;;;5161726;27;19911;-71
2022/02/15 13:52:07;;;;;;;;;;;14.10;55.20;;;;;;5161737;27;19907;-70
2022/02/15 13:54:33;;;;;;;;;;;14.20;55.30;;;;;;5161606;27;20084;-70
2022/02/15 13:56:59;;;;;;;;;;;14.20;55.10;;;;;;5143320;27;19918;-69
2022/02/15 13:59:24;;;;;;;;;;;14.20;55.10;;;;;;5161447;27;19911;-69
2022/02/15 14:01:52;;;;;;;;;;;14.20;55.00;;;;;;5161624;27;19911;-70
2022/02/15 14:04:26;;;;;;;;;;;14.20;55.70;;;;;;5161536;27;19934;-69
2022/02/15 14:06:52;;;;;;;;;;;14.20;55.10;;;;;;5161524;27;19911;-69
2022/02/15 14:09:18;;;;;;;;;;;14.20;55.20;;;;;;5160913;27;19944;-70
2022/02/15 14:11:43;;;;;;;;;;;14.20;55.20;;;;;;5142840;27;19911;-70
2022/02/15 14:14:09;;;;;;;;;;;14.20;55.20;;;;;;5161559;27;19911;-70
2022/02/15 14:16:35;;;;;;;;;;;14.20;55.20;;;;;;5161441;27;19911;-69